Thangoo, Australia
Current Conditions -  °F | °C
As of 8:30 PM on Monday 24 Nov 2014 (Local Time) from YBRM Reporting Station
Clear Clear  
Wind Chill: 86°   Ceiling: Unl
Heat Index: 97°   Visibility: 6mi
Dew Point: 77°   Wind: 10mph
Humidity: 74%   Direction: 290°WNW
Pressure: 29.77"   Gusts: NA
Location:  18.18°S, 122.35°E
Report Text: YBRM 241230Z 29009KT CAVOK 30/25 Q1008
Loading
Personal Weather Stations






























Interactive Weather Map New forecast layout! Learn more

10-Day Weather Forecast

Advertisements
Track Severe Weather on mobile